sensor_id;sensor_type;location;lat;lon;timestamp;P1;durP1;ratioP1;P2;durP2;ratioP2
52386;SDS011;38317;53.084;6.960;2022-09-25T00:00:19;4.65;;;0.80;;
52386;SDS011;38317;53.084;6.960;2022-09-25T00:02:44;2.10;;;0.50;;
52386;SDS011;38317;53.084;6.960;2022-09-25T00:05:10;4.80;;;0.57;;
52386;SDS011;38317;53.084;6.960;2022-09-25T00:07:36;1.67;;;0.50;;
52386;SDS011;38317;53.084;6.960;2022-09-25T00:10:02;2.00;;;0.52;;
52386;SDS011;38317;53.084;6.960;2022-09-25T00:12:28;2.70;;;0.70;;
52386;SDS011;38317;53.084;6.960;2022-09-25T00:14:53;3.78;;;0.50;;
52386;SDS011;38317;53.084;6.960;2022-09-25T00:17:20;3.35;;;0.57;;
52386;SDS011;38317;53.084;6.960;2022-09-25T00:19:46;2.10;;;0.60;;
52386;SDS011;38317;53.084;6.960;2022-09-25T00:22:15;2.75;;;0.50;;
52386;SDS011;38317;53.084;6.960;2022-09-25T00:24:44;3.70;;;0.50;;
52386;SDS011;38317;53.084;6.960;2022-09-25T00:27:10;5.57;;;1.02;;
52386;SDS011;38317;53.084;6.960;2022-09-25T00:29:37;2.08;;;0.47;;
52386;SDS011;38317;53.084;6.960;2022-09-25T00:32:04;2.50;;;0.77;;
52386;SDS011;38317;53.084;6.960;2022-09-25T00:34:31;3.78;;;0.95;;
52386;SDS011;38317;53.084;6.960;2022-09-25T00:36:57;4.57;;;0.60;;
52386;SDS011;38317;53.084;6.960;2022-09-25T00:39:22;2.35;;;0.60;;
52386;SDS011;38317;53.084;6.960;2022-09-25T00:41:50;4.35;;;0.82;;
52386;SDS011;38317;53.084;6.960;2022-09-25T00:47:07;4.38;;;0.88;;
52386;SDS011;38317;53.084;6.960;2022-09-25T00:49:35;2.22;;;0.70;;
52386;SDS011;38317;53.084;6.960;2022-09-25T00:52:05;4.07;;;1.05;;
52386;SDS011;38317;53.084;6.960;2022-09-25T00:54:35;4.03;;;0.70;;
52386;SDS011;38317;53.084;6.960;2022-09-25T00:57:15;5.38;;;0.95;;
52386;SDS011;38317;53.084;6.960;2022-09-25T00:59:45;5.65;;;0.82;;
52386;SDS011;38317;53.084;6.960;2022-09-25T01:05:24;4.60;;;1.40;;
52386;SDS011;38317;53.084;6.960;2022-09-25T01:07:55;3.67;;;0.80;;
52386;SDS011;38317;53.084;6.960;2022-09-25T01:10:23;4.00;;;0.95;;
52386;SDS011;38317;53.084;6.960;2022-09-25T01:12:50;3.13;;;0.75;;
52386;SDS011;38317;53.084;6.960;2022-09-25T01:15:18;4.43;;;1.00;;
52386;SDS011;38317;53.084;6.960;2022-09-25T01:18:04;8.50;;;1.85;;
52386;SDS011;38317;53.084;6.960;2022-09-25T01:20:54;2.38;;;0.60;;
52386;SDS011;38317;53.084;6.960;2022-09-25T01:23:50;5.50;;;1.23;;
52386;SDS011;38317;53.084;6.960;2022-09-25T01:29:57;2.60;;;0.85;;
52386;SDS011;38317;53.084;6.960;2022-09-25T01:35:07;2.83;;;0.65;;
52386;SDS011;38317;53.084;6.960;2022-09-25T01:38:25;3.65;;;0.80;;
52386;SDS011;38317;53.084;6.960;2022-09-25T01:44:01;3.08;;;0.73;;
52386;SDS011;38317;53.084;6.960;2022-09-25T01:46:33;5.53;;;0.73;;
52386;SDS011;38317;53.084;6.960;2022-09-25T01:49:07;2.67;;;0.95;;
52386;SDS011;38317;53.084;6.960;2022-09-25T01:51:42;3.13;;;0.63;;
52386;SDS011;38317;53.084;6.960;2022-09-25T01:54:15;5.82;;;0.70;;
52386;SDS011;38317;53.084;6.960;2022-09-25T02:02:21;2.85;;;0.40;;
52386;SDS011;38317;53.084;6.960;2022-09-25T02:07:28;4.32;;;0.50;;
52386;SDS011;38317;53.084;6.960;2022-09-25T02:10:11;6.07;;;0.70;;
52386;SDS011;38317;53.084;6.960;2022-09-25T02:12:46;3.25;;;0.82;;
52386;SDS011;38317;53.084;6.960;2022-09-25T02:17:44;3.25;;;0.70;;
52386;SDS011;38317;53.084;6.960;2022-09-25T02:20:35;4.57;;;0.80;;
52386;SDS011;38317;53.084;6.960;2022-09-25T02:23:05;5.60;;;0.80;;
52386;SDS011;38317;53.084;6.960;2022-09-25T02:25:43;3.83;;;0.70;;
52386;SDS011;38317;53.084;6.960;2022-09-25T02:28:13;3.17;;;0.70;;
52386;SDS011;38317;53.084;6.960;2022-09-25T02:30:39;5.60;;;0.93;;
52386;SDS011;38317;53.084;6.960;2022-09-25T02:33:05;4.18;;;0.70;;
52386;SDS011;38317;53.084;6.960;2022-09-25T02:35:31;3.83;;;0.88;;
52386;SDS011;38317;53.084;6.960;2022-09-25T02:37:57;3.53;;;0.60;;
52386;SDS011;38317;53.084;6.960;2022-09-25T02:40:25;3.35;;;0.60;;
52386;SDS011;38317;53.084;6.960;2022-09-25T02:43:06;4.15;;;0.90;;
52386;SDS011;38317;53.084;6.960;2022-09-25T02:45:56;4.32;;;0.65;;
52386;SDS011;38317;53.084;6.960;2022-09-25T02:51:31;4.40;;;0.70;;
52386;SDS011;38317;53.084;6.960;2022-09-25T02:54:14;3.55;;;0.55;;
52386;SDS011;38317;53.084;6.960;2022-09-25T02:56:51;3.55;;;1.25;;
52386;SDS011;38317;53.084;6.960;2022-09-25T02:59:27;3.35;;;0.70;;
52386;SDS011;38317;53.084;6.960;2022-09-25T03:01:56;5.15;;;1.13;;
52386;SDS011;38317;53.084;6.960;2022-09-25T03:04:23;4.55;;;1.00;;
52386;SDS011;38317;53.084;6.960;2022-09-25T03:06:50;3.33;;;0.52;;
52386;SDS011;38317;53.084;6.960;2022-09-25T03:09:16;5.95;;;0.90;;
52386;SDS011;38317;53.084;6.960;2022-09-25T03:11:45;4.28;;;1.00;;
52386;SDS011;38317;53.084;6.960;2022-09-25T03:14:11;4.20;;;0.70;;
52386;SDS011;38317;53.084;6.960;2022-09-25T03:19:05;2.53;;;0.60;;
52386;SDS011;38317;53.084;6.960;2022-09-25T03:21:31;5.35;;;0.98;;
52386;SDS011;38317;53.084;6.960;2022-09-25T03:23:58;4.53;;;0.80;;
52386;SDS011;38317;53.084;6.960;2022-09-25T03:26:24;2.35;;;0.73;;
52386;SDS011;38317;53.084;6.960;2022-09-25T03:28:51;2.78;;;0.60;;
52386;SDS011;38317;53.084;6.960;2022-09-25T03:31:18;4.00;;;0.80;;
52386;SDS011;38317;53.084;6.960;2022-09-25T03:33:44;3.22;;;0.75;;
52386;SDS011;38317;53.084;6.960;2022-09-25T03:36:14;2.88;;;0.70;;
52386;SDS011;38317;53.084;6.960;2022-09-25T03:38:41;3.13;;;0.98;;
52386;SDS011;38317;53.084;6.960;2022-09-25T03:41:08;3.42;;;0.70;;
52386;SDS011;38317;53.084;6.960;2022-09-25T03:43:35;5.60;;;0.93;;
52386;SDS011;38317;53.084;6.960;2022-09-25T03:46:02;2.20;;;0.68;;
52386;SDS011;38317;53.084;6.960;2022-09-25T03:48:29;3.00;;;0.63;;
52386;SDS011;38317;53.084;6.960;2022-09-25T03:50:56;2.63;;;0.90;;
52386;SDS011;38317;53.084;6.960;2022-09-25T03:53:22;2.92;;;0.75;;
52386;SDS011;38317;53.084;6.960;2022-09-25T03:55:49;3.08;;;0.63;;
52386;SDS011;38317;53.084;6.960;2022-09-25T03:58:15;2.47;;;0.80;;
52386;SDS011;38317;53.084;6.960;2022-09-25T04:00:43;3.35;;;0.70;;
52386;SDS011;38317;53.084;6.960;2022-09-25T04:03:10;3.78;;;0.95;;
52386;SDS011;38317;53.084;6.960;2022-09-25T04:05:36;4.28;;;1.00;;
52386;SDS011;38317;53.084;6.960;2022-09-25T04:08:03;2.58;;;0.98;;
52386;SDS011;38317;53.084;6.960;2022-09-25T04:10:29;3.20;;;0.60;;
52386;SDS011;38317;53.084;6.960;2022-09-25T04:12:55;4.10;;;0.80;;
52386;SDS011;38317;53.084;6.960;2022-09-25T04:15:21;4.35;;;0.80;;
52386;SDS011;38317;53.084;6.960;2022-09-25T04:17:47;3.45;;;0.80;;
52386;SDS011;38317;53.084;6.960;2022-09-25T04:20:13;3.40;;;0.80;;
52386;SDS011;38317;53.084;6.960;2022-09-25T04:22:39;5.22;;;0.90;;
52386;SDS011;38317;53.084;6.960;2022-09-25T04:25:05;2.47;;;0.68;;
52386;SDS011;38317;53.084;6.960;2022-09-25T04:27:31;2.08;;;0.60;;
52386;SDS011;38317;53.084;6.960;2022-09-25T04:29:57;4.95;;;1.00;;
52386;SDS011;38317;53.084;6.960;2022-09-25T04:32:25;3.20;;;0.70;;
52386;SDS011;38317;53.084;6.960;2022-09-25T04:35:09;3.08;;;0.98;;
52386;SDS011;38317;53.084;6.960;2022-09-25T04:37:35;1.80;;;0.75;;
52386;SDS011;38317;53.084;6.960;2022-09-25T04:40:01;3.25;;;0.55;;
52386;SDS011;38317;53.084;6.960;2022-09-25T04:42:27;3.35;;;0.90;;
52386;SDS011;38317;53.084;6.960;2022-09-25T04:44:53;4.10;;;0.70;;
52386;SDS011;38317;53.084;6.960;2022-09-25T04:47:20;2.97;;;0.60;;
52386;SDS011;38317;53.084;6.960;2022-09-25T04:49:46;2.28;;;0.70;;
52386;SDS011;38317;53.084;6.960;2022-09-25T04:52:16;1.63;;;0.52;;
52386;SDS011;38317;53.084;6.960;2022-09-25T04:54:44;5.40;;;0.77;;
52386;SDS011;38317;53.084;6.960;2022-09-25T04:57:14;4.00;;;0.80;;
52386;SDS011;38317;53.084;6.960;2022-09-25T04:59:41;3.05;;;0.70;;
52386;SDS011;38317;53.084;6.960;2022-09-25T05:02:07;4.97;;;0.80;;
52386;SDS011;38317;53.084;6.960;2022-09-25T05:04:33;2.70;;;0.68;;
52386;SDS011;38317;53.084;6.960;2022-09-25T05:06:59;3.13;;;0.77;;
52386;SDS011;38317;53.084;6.960;2022-09-25T05:09:25;2.05;;;0.65;;
52386;SDS011;38317;53.084;6.960;2022-09-25T05:11:51;4.55;;;1.33;;
52386;SDS011;38317;53.084;6.960;2022-09-25T05:14:16;5.38;;;1.20;;
52386;SDS011;38317;53.084;6.960;2022-09-25T05:16:42;3.55;;;0.65;;
52386;SDS011;38317;53.084;6.960;2022-09-25T05:19:10;3.50;;;0.90;;
52386;SDS011;38317;53.084;6.960;2022-09-25T05:21:36;3.00;;;0.70;;
52386;SDS011;38317;53.084;6.960;2022-09-25T05:24:02;1.70;;;0.90;;
52386;SDS011;38317;53.084;6.960;2022-09-25T05:26:27;3.20;;;0.82;;
52386;SDS011;38317;53.084;6.960;2022-09-25T05:28:54;1.15;;;0.60;;
52386;SDS011;38317;53.084;6.960;2022-09-25T05:31:20;2.85;;;1.02;;
52386;SDS011;38317;53.084;6.960;2022-09-25T05:33:46;5.10;;;0.88;;
52386;SDS011;38317;53.084;6.960;2022-09-25T05:36:13;2.10;;;0.85;;
52386;SDS011;38317;53.084;6.960;2022-09-25T05:38:39;1.90;;;0.70;;
52386;SDS011;38317;53.084;6.960;2022-09-25T05:41:06;3.05;;;0.90;;
52386;SDS011;38317;53.084;6.960;2022-09-25T05:43:33;2.65;;;0.60;;
52386;SDS011;38317;53.084;6.960;2022-09-25T05:46:04;2.92;;;0.75;;
52386;SDS011;38317;53.084;6.960;2022-09-25T05:48:30;3.60;;;0.90;;
52386;SDS011;38317;53.084;6.960;2022-09-25T05:50:56;3.28;;;0.77;;
52386;SDS011;38317;53.084;6.960;2022-09-25T05:53:22;3.22;;;1.10;;
52386;SDS011;38317;53.084;6.960;2022-09-25T05:55:52;3.70;;;1.00;;
52386;SDS011;38317;53.084;6.960;2022-09-25T05:58:19;2.75;;;0.95;;
52386;SDS011;38317;53.084;6.960;2022-09-25T06:00:46;1.95;;;0.95;;
52386;SDS011;38317;53.084;6.960;2022-09-25T06:03:12;2.85;;;0.93;;
52386;SDS011;38317;53.084;6.960;2022-09-25T06:05:39;3.72;;;1.00;;
52386;SDS011;38317;53.084;6.960;2022-09-25T06:08:05;4.07;;;1.02;;
52386;SDS011;38317;53.084;6.960;2022-09-25T06:10:31;2.90;;;1.00;;
52386;SDS011;38317;53.084;6.960;2022-09-25T06:12:57;3.63;;;1.35;;
52386;SDS011;38317;53.084;6.960;2022-09-25T06:15:31;3.13;;;0.80;;
52386;SDS011;38317;53.084;6.960;2022-09-25T06:18:00;2.78;;;0.98;;
52386;SDS011;38317;53.084;6.960;2022-09-25T06:20:26;4.10;;;1.13;;
52386;SDS011;38317;53.084;6.960;2022-09-25T06:22:52;3.25;;;0.95;;
52386;SDS011;38317;53.084;6.960;2022-09-25T06:25:19;3.20;;;0.77;;
52386;SDS011;38317;53.084;6.960;2022-09-25T06:27:53;4.45;;;0.93;;
52386;SDS011;38317;53.084;6.960;2022-09-25T06:30:20;3.15;;;1.10;;
52386;SDS011;38317;53.084;6.960;2022-09-25T06:32:47;4.70;;;1.10;;
52386;SDS011;38317;53.084;6.960;2022-09-25T06:35:15;7.97;;;1.95;;
52386;SDS011;38317;53.084;6.960;2022-09-25T06:37:41;4.55;;;1.20;;
52386;SDS011;38317;53.084;6.960;2022-09-25T06:40:07;3.92;;;0.80;;
52386;SDS011;38317;53.084;6.960;2022-09-25T06:42:38;2.55;;;0.73;;
52386;SDS011;38317;53.084;6.960;2022-09-25T06:45:04;3.80;;;0.80;;
52386;SDS011;38317;53.084;6.960;2022-09-25T06:47:30;3.80;;;1.00;;
52386;SDS011;38317;53.084;6.960;2022-09-25T06:49:55;2.90;;;1.25;;
52386;SDS011;38317;53.084;6.960;2022-09-25T06:52:22;2.70;;;0.88;;
52386;SDS011;38317;53.084;6.960;2022-09-25T06:54:48;2.60;;;0.80;;
52386;SDS011;38317;53.084;6.960;2022-09-25T06:57:14;3.65;;;0.93;;
52386;SDS011;38317;53.084;6.960;2022-09-25T06:59:40;2.25;;;0.73;;
52386;SDS011;38317;53.084;6.960;2022-09-25T07:02:05;2.60;;;1.02;;
52386;SDS011;38317;53.084;6.960;2022-09-25T07:04:51;5.63;;;0.70;;
52386;SDS011;38317;53.084;6.960;2022-09-25T07:07:17;3.45;;;1.25;;
52386;SDS011;38317;53.084;6.960;2022-09-25T07:09:45;3.05;;;0.82;;
52386;SDS011;38317;53.084;6.960;2022-09-25T07:12:14;2.83;;;0.77;;
52386;SDS011;38317;53.084;6.960;2022-09-25T07:14:41;3.58;;;0.77;;
52386;SDS011;38317;53.084;6.960;2022-09-25T07:17:08;4.60;;;1.08;;
52386;SDS011;38317;53.084;6.960;2022-09-25T07:19:34;2.47;;;0.90;;
52386;SDS011;38317;53.084;6.960;2022-09-25T07:22:00;3.65;;;0.95;;
52386;SDS011;38317;53.084;6.960;2022-09-25T07:24:26;3.92;;;1.00;;
52386;SDS011;38317;53.084;6.960;2022-09-25T07:26:51;6.88;;;0.95;;
52386;SDS011;38317;53.084;6.960;2022-09-25T07:29:17;6.63;;;1.25;;
52386;SDS011;38317;53.084;6.960;2022-09-25T07:31:43;7.07;;;1.20;;
52386;SDS011;38317;53.084;6.960;2022-09-25T07:34:09;7.55;;;1.20;;
52386;SDS011;38317;53.084;6.960;2022-09-25T07:36:35;4.05;;;1.05;;
52386;SDS011;38317;53.084;6.960;2022-09-25T07:39:06;4.97;;;0.70;;
52386;SDS011;38317;53.084;6.960;2022-09-25T07:41:32;4.50;;;0.90;;
52386;SDS011;38317;53.084;6.960;2022-09-25T07:43:59;5.55;;;1.08;;
52386;SDS011;38317;53.084;6.960;2022-09-25T07:46:25;3.92;;;1.20;;
52386;SDS011;38317;53.084;6.960;2022-09-25T07:48:52;3.63;;;1.02;;
52386;SDS011;38317;53.084;6.960;2022-09-25T07:51:18;4.90;;;1.25;;
52386;SDS011;38317;53.084;6.960;2022-09-25T07:53:48;6.38;;;1.02;;
52386;SDS011;38317;53.084;6.960;2022-09-25T07:56:14;3.55;;;0.80;;
52386;SDS011;38317;53.084;6.960;2022-09-25T07:58:44;3.75;;;1.08;;
52386;SDS011;38317;53.084;6.960;2022-09-25T08:01:11;3.03;;;0.82;;
52386;SDS011;38317;53.084;6.960;2022-09-25T08:03:37;5.03;;;1.63;;
52386;SDS011;38317;53.084;6.960;2022-09-25T08:06:08;4.45;;;1.00;;
52386;SDS011;38317;53.084;6.960;2022-09-25T08:08:36;5.75;;;1.10;;
52386;SDS011;38317;53.084;6.960;2022-09-25T08:11:03;4.30;;;1.30;;
52386;SDS011;38317;53.084;6.960;2022-09-25T08:13:31;4.57;;;1.70;;
52386;SDS011;38317;53.084;6.960;2022-09-25T08:16:00;10.02;;;1.92;;
52386;SDS011;38317;53.084;6.960;2022-09-25T08:18:27;4.00;;;1.25;;
52386;SDS011;38317;53.084;6.960;2022-09-25T08:20:52;3.10;;;0.90;;
52386;SDS011;38317;53.084;6.960;2022-09-25T08:23:18;4.38;;;0.90;;
52386;SDS011;38317;53.084;6.960;2022-09-25T08:25:47;6.65;;;1.05;;
52386;SDS011;38317;53.084;6.960;2022-09-25T08:28:14;5.88;;;1.67;;
52386;SDS011;38317;53.084;6.960;2022-09-25T08:30:40;7.82;;;0.98;;
52386;SDS011;38317;53.084;6.960;2022-09-25T08:33:11;2.10;;;0.60;;
52386;SDS011;38317;53.084;6.960;2022-09-25T08:35:37;3.17;;;0.70;;
52386;SDS011;38317;53.084;6.960;2022-09-25T08:38:05;2.50;;;0.88;;
52386;SDS011;38317;53.084;6.960;2022-09-25T08:40:32;4.97;;;0.82;;
52386;SDS011;38317;53.084;6.960;2022-09-25T08:43:01;3.53;;;0.80;;
52386;SDS011;38317;53.084;6.960;2022-09-25T08:45:29;2.88;;;0.70;;
52386;SDS011;38317;53.084;6.960;2022-09-25T08:48:20;3.92;;;1.05;;
52386;SDS011;38317;53.084;6.960;2022-09-25T08:51:09;3.80;;;0.60;;
52386;SDS011;38317;53.084;6.960;2022-09-25T08:53:35;4.43;;;0.70;;
52386;SDS011;38317;53.084;6.960;2022-09-25T08:56:04;2.67;;;0.45;;
52386;SDS011;38317;53.084;6.960;2022-09-25T08:58:51;1.88;;;0.47;;
52386;SDS011;38317;53.084;6.960;2022-09-25T09:01:25;6.88;;;0.50;;
52386;SDS011;38317;53.084;6.960;2022-09-25T09:06:25;10.00;;;0.52;;
52386;SDS011;38317;53.084;6.960;2022-09-25T09:08:55;1.88;;;0.30;;
52386;SDS011;38317;53.084;6.960;2022-09-25T09:11:35;0.45;;;0.25;;
52386;SDS011;38317;53.084;6.960;2022-09-25T09:14:15;1.42;;;0.20;;
52386;SDS011;38317;53.084;6.960;2022-09-25T09:17:04;5.55;;;0.30;;
52386;SDS011;38317;53.084;6.960;2022-09-25T09:19:37;2.87;;;0.20;;
52386;SDS011;38317;53.084;6.960;2022-09-25T09:22:05;3.25;;;0.30;;
52386;SDS011;38317;53.084;6.960;2022-09-25T09:30:22;1.25;;;0.30;;
52386;SDS011;38317;53.084;6.960;2022-09-25T09:42:14;5.03;;;0.22;;
52386;SDS011;38317;53.084;6.960;2022-09-25T09:52:52;3.58;;;0.75;;
52386;SDS011;38317;53.084;6.960;2022-09-25T09:55:25;3.67;;;0.38;;
52386;SDS011;38317;53.084;6.960;2022-09-25T09:58:01;1.90;;;0.10;;
52386;SDS011;38317;53.084;6.960;2022-09-25T10:00:31;2.58;;;0.40;;
52386;SDS011;38317;53.084;6.960;2022-09-25T10:07:56;2.05;;;0.20;;
52386;SDS011;38317;53.084;6.960;2022-09-25T10:10:33;0.82;;;0.30;;
52386;SDS011;38317;53.084;6.960;2022-09-25T10:13:01;1.27;;;0.20;;
52386;SDS011;38317;53.084;6.960;2022-09-25T10:18:00;1.67;;;0.30;;
52386;SDS011;38317;53.084;6.960;2022-09-25T10:20:40;1.60;;;0.20;;
52386;SDS011;38317;53.084;6.960;2022-09-25T10:26:26;2.05;;;0.32;;
52386;SDS011;38317;53.084;6.960;2022-09-25T10:28:54;1.52;;;0.28;;
52386;SDS011;38317;53.084;6.960;2022-09-25T10:31:22;3.25;;;0.30;;
52386;SDS011;38317;53.084;6.960;2022-09-25T10:33:57;1.33;;;0.55;;
52386;SDS011;38317;53.084;6.960;2022-09-25T10:38:59;1.42;;;0.28;;
52386;SDS011;38317;53.084;6.960;2022-09-25T10:41:26;3.10;;;0.63;;
52386;SDS011;38317;53.084;6.960;2022-09-25T10:43:59;1.85;;;0.43;;
52386;SDS011;38317;53.084;6.960;2022-09-25T10:49:27;0.60;;;0.20;;
52386;SDS011;38317;53.084;6.960;2022-09-25T10:52:12;0.45;;;0.17;;
52386;SDS011;38317;53.084;6.960;2022-09-25T10:54:39;1.00;;;0.20;;
52386;SDS011;38317;53.084;6.960;2022-09-25T10:57:40;2.55;;;0.30;;
52386;SDS011;38317;53.084;6.960;2022-09-25T11:00:08;1.27;;;0.25;;
52386;SDS011;38317;53.084;6.960;2022-09-25T11:02:45;0.57;;;0.22;;
52386;SDS011;38317;53.084;6.960;2022-09-25T11:05:13;0.63;;;0.13;;
52386;SDS011;38317;53.084;6.960;2022-09-25T11:07:47;2.17;;;0.40;;
52386;SDS011;38317;53.084;6.960;2022-09-25T11:10:23;2.75;;;0.38;;
52386;SDS011;38317;53.084;6.960;2022-09-25T11:12:53;1.55;;;0.22;;
52386;SDS011;38317;53.084;6.960;2022-09-25T11:15:22;2.65;;;0.40;;
52386;SDS011;38317;53.084;6.960;2022-09-25T11:17:50;3.15;;;0.50;;
52386;SDS011;38317;53.084;6.960;2022-09-25T11:20:22;2.92;;;0.30;;
52386;SDS011;38317;53.084;6.960;2022-09-25T11:28:27;2.60;;;0.20;;
52386;SDS011;38317;53.084;6.960;2022-09-25T11:31:41;4.88;;;0.50;;
52386;SDS011;38317;53.084;6.960;2022-09-25T11:33:49;2.08;;;0.25;;
52386;SDS011;38317;53.084;6.960;2022-09-25T11:36:40;2.17;;;0.30;;
52386;SDS011;38317;53.084;6.960;2022-09-25T11:39:13;0.82;;;0.20;;
52386;SDS011;38317;53.084;6.960;2022-09-25T11:42:07;2.58;;;0.30;;
52386;SDS011;38317;53.084;6.960;2022-09-25T11:44:41;2.35;;;0.20;;
52386;SDS011;38317;53.084;6.960;2022-09-25T11:47:17;1.20;;;0.43;;
52386;SDS011;38317;53.084;6.960;2022-09-25T11:49:51;1.20;;;0.20;;
52386;SDS011;38317;53.084;6.960;2022-09-25T11:52:19;2.58;;;0.90;;
52386;SDS011;38317;53.084;6.960;2022-09-25T11:55:06;2.03;;;0.20;;
52386;SDS011;38317;53.084;6.960;2022-09-25T12:00:22;1.70;;;0.20;;
52386;SDS011;38317;53.084;6.960;2022-09-25T12:13:58;1.73;;;0.25;;
52386;SDS011;38317;53.084;6.960;2022-09-25T12:19:47;1.20;;;0.30;;
52386;SDS011;38317;53.084;6.960;2022-09-25T12:22:34;1.50;;;0.15;;
52386;SDS011;38317;53.084;6.960;2022-09-25T12:25:51;2.22;;;0.22;;
52386;SDS011;38317;53.084;6.960;2022-09-25T12:36:14;2.45;;;0.45;;
52386;SDS011;38317;53.084;6.960;2022-09-25T12:38:54;0.95;;;0.20;;
52386;SDS011;38317;53.084;6.960;2022-09-25T12:41:33;1.65;;;0.20;;
52386;SDS011;38317;53.084;6.960;2022-09-25T12:44:01;1.35;;;0.30;;
52386;SDS011;38317;53.084;6.960;2022-09-25T12:46:38;3.92;;;0.25;;
52386;SDS011;38317;53.084;6.960;2022-09-25T12:51:57;1.02;;;0.20;;
52386;SDS011;38317;53.084;6.960;2022-09-25T12:54:35;1.23;;;0.20;;
52386;SDS011;38317;53.084;6.960;2022-09-25T13:00:22;2.88;;;0.30;;
52386;SDS011;38317;53.084;6.960;2022-09-25T13:05:34;1.10;;;0.20;;
52386;SDS011;38317;53.084;6.960;2022-09-25T13:11:02;1.73;;;0.30;;
52386;SDS011;38317;53.084;6.960;2022-09-25T13:13:47;2.22;;;0.30;;
52386;SDS011;38317;53.084;6.960;2022-09-25T13:16:17;2.28;;;0.22;;
52386;SDS011;38317;53.084;6.960;2022-09-25T13:18:48;0.38;;;0.10;;
52386;SDS011;38317;53.084;6.960;2022-09-25T13:21:40;2.15;;;0.32;;
52386;SDS011;38317;53.084;6.960;2022-09-25T13:24:13;1.50;;;0.20;;
52386;SDS011;38317;53.084;6.960;2022-09-25T13:26:48;0.50;;;0.10;;
52386;SDS011;38317;53.084;6.960;2022-09-25T13:29:20;1.58;;;0.22;;
52386;SDS011;38317;53.084;6.960;2022-09-25T13:31:46;3.53;;;0.40;;
52386;SDS011;38317;53.084;6.960;2022-09-25T13:34:13;0.55;;;0.10;;
52386;SDS011;38317;53.084;6.960;2022-09-25T13:39:43;2.58;;;0.20;;
52386;SDS011;38317;53.084;6.960;2022-09-25T13:42:36;0.70;;;0.30;;
52386;SDS011;38317;53.084;6.960;2022-09-25T13:48:11;1.50;;;0.52;;
52386;SDS011;38317;53.084;6.960;2022-09-25T13:50:43;1.95;;;0.35;;
52386;SDS011;38317;53.084;6.960;2022-09-25T13:53:12;1.20;;;0.30;;
52386;SDS011;38317;53.084;6.960;2022-09-25T13:58:17;0.80;;;0.30;;
52386;SDS011;38317;53.084;6.960;2022-09-25T14:00:51;1.48;;;0.25;;
52386;SDS011;38317;53.084;6.960;2022-09-25T14:03:35;1.17;;;0.30;;
52386;SDS011;38317;53.084;6.960;2022-09-25T14:06:09;1.60;;;0.20;;
52386;SDS011;38317;53.084;6.960;2022-09-25T14:08:41;2.35;;;0.38;;
52386;SDS011;38317;53.084;6.960;2022-09-25T14:11:10;1.50;;;0.20;;
52386;SDS011;38317;53.084;6.960;2022-09-25T14:13:40;1.05;;;0.22;;
52386;SDS011;38317;53.084;6.960;2022-09-25T14:16:22;0.70;;;0.10;;
52386;SDS011;38317;53.084;6.960;2022-09-25T14:21:21;2.85;;;0.30;;
52386;SDS011;38317;53.084;6.960;2022-09-25T14:23:48;1.63;;;0.20;;
52386;SDS011;38317;53.084;6.960;2022-09-25T14:26:19;3.10;;;0.22;;
52386;SDS011;38317;53.084;6.960;2022-09-25T14:28:47;0.85;;;0.20;;
52386;SDS011;38317;53.084;6.960;2022-09-25T14:42:36;2.35;;;0.20;;
52386;SDS011;38317;53.084;6.960;2022-09-25T14:48:13;1.40;;;0.20;;
52386;SDS011;38317;53.084;6.960;2022-09-25T14:50:44;1.73;;;0.22;;
52386;SDS011;38317;53.084;6.960;2022-09-25T14:53:25;1.33;;;0.20;;
52386;SDS011;38317;53.084;6.960;2022-09-25T14:55:57;3.33;;;0.55;;
52386;SDS011;38317;53.084;6.960;2022-09-25T14:58:27;1.05;;;0.10;;
52386;SDS011;38317;53.084;6.960;2022-09-25T15:01:57;2.42;;;0.20;;
52386;SDS011;38317;53.084;6.960;2022-09-25T15:03:54;1.00;;;0.10;;
52386;SDS011;38317;53.084;6.960;2022-09-25T15:06:33;1.15;;;0.20;;
52386;SDS011;38317;53.084;6.960;2022-09-25T15:09:18;1.30;;;0.20;;
52386;SDS011;38317;53.084;6.960;2022-09-25T15:15:03;2.60;;;0.20;;
52386;SDS011;38317;53.084;6.960;2022-09-25T15:17:46;1.90;;;0.40;;
52386;SDS011;38317;53.084;6.960;2022-09-25T15:20:19;1.63;;;0.30;;
52386;SDS011;38317;53.084;6.960;2022-09-25T15:22:48;1.67;;;0.40;;
52386;SDS011;38317;53.084;6.960;2022-09-25T15:25:23;2.20;;;0.30;;
52386;SDS011;38317;53.084;6.960;2022-09-25T15:28:13;1.40;;;0.10;;
52386;SDS011;38317;53.084;6.960;2022-09-25T15:30:42;1.95;;;0.17;;
52386;SDS011;38317;53.084;6.960;2022-09-25T15:36:02;0.40;;;0.10;;
52386;SDS011;38317;53.084;6.960;2022-09-25T15:38:50;1.17;;;0.20;;
52386;SDS011;38317;53.084;6.960;2022-09-25T15:41:17;3.22;;;1.10;;
52386;SDS011;38317;53.084;6.960;2022-09-25T15:43:46;0.50;;;0.15;;
52386;SDS011;38317;53.084;6.960;2022-09-25T15:49:13;1.42;;;0.20;;
52386;SDS011;38317;53.084;6.960;2022-09-25T15:51:53;2.15;;;0.20;;
52386;SDS011;38317;53.084;6.960;2022-09-25T15:57:12;0.70;;;0.10;;
52386;SDS011;38317;53.084;6.960;2022-09-25T16:02:27;2.15;;;0.20;;
52386;SDS011;38317;53.084;6.960;2022-09-25T16:05:14;1.00;;;0.10;;
52386;SDS011;38317;53.084;6.960;2022-09-25T16:07:44;1.85;;;0.30;;
52386;SDS011;38317;53.084;6.960;2022-09-25T16:12:43;1.58;;;0.22;;
52386;SDS011;38317;53.084;6.960;2022-09-25T16:21:21;1.63;;;0.20;;
52386;SDS011;38317;53.084;6.960;2022-09-25T16:24:02;2.53;;;0.47;;
52386;SDS011;38317;53.084;6.960;2022-09-25T16:26:38;1.88;;;0.30;;
52386;SDS011;38317;53.084;6.960;2022-09-25T16:32:04;1.70;;;0.50;;
52386;SDS011;38317;53.084;6.960;2022-09-25T16:34:35;1.85;;;0.50;;
52386;SDS011;38317;53.084;6.960;2022-09-25T16:37:04;2.33;;;0.50;;
52386;SDS011;38317;53.084;6.960;2022-09-25T16:39:33;1.90;;;0.52;;
52386;SDS011;38317;53.084;6.960;2022-09-25T16:42:23;1.50;;;0.40;;
52386;SDS011;38317;53.084;6.960;2022-09-25T16:45:13;2.17;;;0.45;;
52386;SDS011;38317;53.084;6.960;2022-09-25T16:47:40;2.80;;;0.77;;
52386;SDS011;38317;53.084;6.960;2022-09-25T16:50:09;3.35;;;0.50;;
52386;SDS011;38317;53.084;6.960;2022-09-25T16:52:36;1.92;;;0.40;;
52386;SDS011;38317;53.084;6.960;2022-09-25T16:55:10;0.68;;;0.28;;
52386;SDS011;38317;53.084;6.960;2022-09-25T16:57:40;1.27;;;0.28;;
52386;SDS011;38317;53.084;6.960;2022-09-25T17:00:08;0.70;;;0.17;;
52386;SDS011;38317;53.084;6.960;2022-09-25T17:02:39;1.63;;;0.40;;
52386;SDS011;38317;53.084;6.960;2022-09-25T17:05:11;0.65;;;0.20;;
52386;SDS011;38317;53.084;6.960;2022-09-25T17:07:45;1.15;;;0.30;;
52386;SDS011;38317;53.084;6.960;2022-09-25T17:10:12;2.72;;;1.10;;
52386;SDS011;38317;53.084;6.960;2022-09-25T17:12:43;4.40;;;1.63;;
52386;SDS011;38317;53.084;6.960;2022-09-25T17:15:13;5.43;;;2.30;;
52386;SDS011;38317;53.084;6.960;2022-09-25T17:17:41;7.90;;;3.72;;
52386;SDS011;38317;53.084;6.960;2022-09-25T17:20:08;8.82;;;4.35;;
52386;SDS011;38317;53.084;6.960;2022-09-25T17:22:35;9.02;;;3.63;;
52386;SDS011;38317;53.084;6.960;2022-09-25T17:25:01;7.32;;;3.33;;
52386;SDS011;38317;53.084;6.960;2022-09-25T17:27:38;3.08;;;1.70;;
52386;SDS011;38317;53.084;6.960;2022-09-25T17:30:03;3.60;;;1.50;;
52386;SDS011;38317;53.084;6.960;2022-09-25T17:32:30;3.08;;;1.10;;
52386;SDS011;38317;53.084;6.960;2022-09-25T17:34:56;6.15;;;2.28;;
52386;SDS011;38317;53.084;6.960;2022-09-25T17:37:24;9.82;;;4.25;;
52386;SDS011;38317;53.084;6.960;2022-09-25T17:39:50;10.40;;;5.78;;
52386;SDS011;38317;53.084;6.960;2022-09-25T17:42:16;7.03;;;3.70;;
52386;SDS011;38317;53.084;6.960;2022-09-25T17:44:41;6.22;;;3.72;;
52386;SDS011;38317;53.084;6.960;2022-09-25T17:47:08;5.28;;;2.88;;
52386;SDS011;38317;53.084;6.960;2022-09-25T17:49:34;5.43;;;1.77;;
52386;SDS011;38317;53.084;6.960;2022-09-25T17:52:01;2.47;;;1.38;;
52386;SDS011;38317;53.084;6.960;2022-09-25T17:54:27;3.97;;;2.00;;
52386;SDS011;38317;53.084;6.960;2022-09-25T17:56:55;6.30;;;3.83;;